Time;durP1;ratioP1;P1;durP2;ratioP2;P2;SDS_P1;SDS_P2;PMS_P1;PMS_P2;Temp;Humidity;BMP_temperature;BMP_pressure;BME280_temperature;BME280_humidity;BME280_pressure;Samples;Min_cycle;Max_cycle;Signal;HPM_P1;HPM_P2
2022/04/02 00:02:24;;;;;;;4.00;0.73;;;;;;;;;;5042273;28;20063;-72
2022/04/02 00:04:49;;;;;;;3.97;0.60;;;;;;;;;;5046510;28;20090;-72
2022/04/02 00:07:15;;;;;;;2.83;0.60;;;;;;;;;;5036791;28;20052;-72
2022/04/02 00:09:40;;;;;;;4.87;0.80;;;;;;;;;;5051971;28;20040;-72
2022/04/02 00:12:07;;;;;;;3.13;0.70;;;;;;;;;;5044813;28;20049;-73
2022/04/02 00:14:32;;;;;;;5.10;0.70;;;;;;;;;;5036737;28;20119;-72
2022/04/02 00:16:57;;;;;;;7.17;1.00;;;;;;;;;;5039285;28;20128;-72
2022/04/02 00:19:22;;;;;;;4.20;0.70;;;;;;;;;;5033526;28;20036;-72
2022/04/02 00:21:47;;;;;;;4.83;0.87;;;;;;;;;;5036241;28;20119;-71
2022/04/02 00:24:13;;;;;;;6.33;0.67;;;;;;;;;;5035844;28;20017;-72
2022/04/02 00:26:38;;;;;;;3.47;0.73;;;;;;;;;;5018186;28;20029;-72
2022/04/02 00:29:05;;;;;;;3.57;0.70;;;;;;;;;;5052433;28;20036;-72
2022/04/02 00:31:31;;;;;;;3.67;0.73;;;;;;;;;;5062737;28;20028;-71
2022/04/02 00:33:57;;;;;;;2.93;0.67;;;;;;;;;;5043045;28;20490;-72
2022/04/02 00:36:22;;;;;;;5.23;1.23;;;;;;;;;;5045951;28;20059;-72
2022/04/02 00:38:48;;;;;;;4.13;0.77;;;;;;;;;;5033398;28;20022;-71
2022/04/02 00:41:15;;;;;;;2.80;0.80;;;;;;;;;;5051397;28;20029;-71
2022/04/02 00:43:42;;;;;;;4.53;0.90;;;;;;;;;;5055183;28;20021;-71
2022/04/02 00:46:09;;;;;;;4.73;1.10;;;;;;;;;;5044519;28;20022;-71
2022/04/02 00:48:35;;;;;;;6.47;0.80;;;;;;;;;;5032452;28;20155;-71
2022/04/02 00:51:02;;;;;;;6.90;1.00;;;;;;;;;;5057842;28;20326;-72
2022/04/02 00:53:32;;;;;;;4.07;0.70;;;;;;;;;;5053065;28;20025;-72
2022/04/02 00:55:58;;;;;;;11.23;1.07;;;;;;;;;;5061286;28;20017;-72
2022/04/02 00:58:23;;;;;;;5.70;1.03;;;;;;;;;;5036385;28;20457;-72
2022/04/02 01:00:49;;;;;;;5.13;0.90;;;;;;;;;;5034737;28;20083;-73
2022/04/02 01:03:16;;;;;;;9.27;1.70;;;;;;;;;;5048933;28;20056;-72
2022/04/02 01:05:41;;;;;;;3.47;1.00;;;;;;;;;;5042601;28;20390;-72
2022/04/02 01:08:07;;;;;;;4.30;0.83;;;;;;;;;;5052343;28;20108;-72
2022/04/02 01:10:32;;;;;;;5.90;1.20;;;;;;;;;;5046268;28;20029;-72
2022/04/02 01:12:59;;;;;;;3.90;0.93;;;;;;;;;;5029893;28;20025;-73
2022/04/02 01:15:24;;;;;;;7.57;1.47;;;;;;;;;;5044528;28;20032;-73
2022/04/02 01:17:49;;;;;;;2.90;1.00;;;;;;;;;;5033280;28;20029;-73
2022/04/02 01:20:15;;;;;;;6.43;0.87;;;;;;;;;;5046433;28;20024;-72
2022/04/02 01:22:40;;;;;;;5.47;1.20;;;;;;;;;;5048609;28;20021;-73
2022/04/02 01:25:05;;;;;;;2.90;0.80;;;;;;;;;;5037430;28;20013;-72
2022/04/02 01:27:31;;;;;;;3.53;0.80;;;;;;;;;;5044546;28;20045;-72
2022/04/02 01:29:56;;;;;;;2.50;0.70;;;;;;;;;;5033060;28;20474;-72
2022/04/02 01:32:21;;;;;;;3.27;0.77;;;;;;;;;;5038683;28;20391;-72
2022/04/02 01:34:47;;;;;;;1.20;0.50;;;;;;;;;;5033099;28;20571;-72
2022/04/02 01:37:18;;;;;;;4.43;0.67;;;;;;;;;;5031823;28;20033;-72
2022/04/02 01:39:43;;;;;;;4.20;0.97;;;;;;;;;;5045431;28;20520;-72
2022/04/02 01:42:08;;;;;;;5.10;0.67;;;;;;;;;;5039799;28;20024;-72
2022/04/02 01:44:34;;;;;;;5.67;0.90;;;;;;;;;;5045669;28;20106;-72
2022/04/02 01:46:59;;;;;;;9.57;1.47;;;;;;;;;;5021757;28;20441;-72
2022/04/02 01:49:24;;;;;;;4.13;0.87;;;;;;;;;;5031345;28;20017;-72
2022/04/02 01:51:50;;;;;;;3.87;0.90;;;;;;;;;;5049812;28;20053;-72
2022/04/02 01:54:17;;;;;;;1.70;0.70;;;;;;;;;;5048140;28;20029;-72
2022/04/02 01:56:42;;;;;;;4.07;0.83;;;;;;;;;;5037160;28;20084;-72
2022/04/02 01:59:07;;;;;;;5.93;0.63;;;;;;;;;;5034059;28;20111;-72
2022/04/02 02:01:32;;;;;;;4.97;0.70;;;;;;;;;;5033365;28;20029;-72
2022/04/02 02:03:58;;;;;;;2.87;0.97;;;;;;;;;;5029320;28;20481;-72
2022/04/02 02:06:23;;;;;;;2.80;0.90;;;;;;;;;;5044423;28;20032;-72
2022/04/02 02:08:48;;;;;;;5.80;0.90;;;;;;;;;;5050099;28;20033;-71
2022/04/02 02:11:13;;;;;;;3.87;0.80;;;;;;;;;;5048299;28;20040;-72
2022/04/02 02:13:38;;;;;;;4.73;1.00;;;;;;;;;;5033112;28;20144;-72
2022/04/02 02:16:04;;;;;;;3.20;0.63;;;;;;;;;;5031693;28;20183;-73
2022/04/02 02:18:29;;;;;;;4.43;1.10;;;;;;;;;;5057434;28;20037;-72
2022/04/02 02:20:54;;;;;;;3.00;0.90;;;;;;;;;;5048357;28;20041;-72
2022/04/02 02:23:20;;;;;;;5.60;0.90;;;;;;;;;;5049306;28;20504;-71
2022/04/02 02:25:45;;;;;;;4.63;0.90;;;;;;;;;;5049911;28;20033;-71
2022/04/02 02:28:10;;;;;;;4.20;0.70;;;;;;;;;;5035288;28;20017;-71
2022/04/02 02:30:36;;;;;;;5.23;1.10;;;;;;;;;;5048349;28;20044;-71
2022/04/02 02:35:51;;;;;;;3.70;1.00;;;;;;;;;;5032022;28;20540;-72
2022/04/02 02:38:19;;;;;;;1.70;0.90;;;;;;;;;;5044651;28;20091;-71
2022/04/02 02:40:45;;;;;;;2.63;0.90;;;;;;;;;;5049950;28;20086;-72
2022/04/02 02:43:10;;;;;;;3.30;1.00;;;;;;;;;;5044029;28;20017;-71
2022/04/02 02:45:35;;;;;;;3.07;0.83;;;;;;;;;;5043072;28;20068;-71
2022/04/02 02:48:01;;;;;;;2.03;0.83;;;;;;;;;;5038327;28;20022;-70
2022/04/02 02:50:27;;;;;;;5.60;1.17;;;;;;;;;;5055000;28;20079;-72
2022/04/02 02:52:52;;;;;;;2.67;0.90;;;;;;;;;;5041341;28;20029;-71
2022/04/02 02:55:18;;;;;;;4.30;1.00;;;;;;;;;;5042995;28;20052;-71
2022/04/02 02:57:44;;;;;;;1.67;0.77;;;;;;;;;;5044551;28;20041;-71
2022/04/02 03:00:11;;;;;;;4.33;1.60;;;;;;;;;;5051085;28;20040;-71
2022/04/02 03:02:37;;;;;;;4.10;1.10;;;;;;;;;;5052384;28;20477;-71
2022/04/02 03:05:05;;;;;;;4.97;0.90;;;;;;;;;;5039789;28;20489;-71
2022/04/02 03:07:35;;;;;;;2.47;0.60;;;;;;;;;;5048956;28;20384;-71
2022/04/02 03:10:00;;;;;;;2.33;1.00;;;;;;;;;;5039885;28;20029;-71
2022/04/02 03:12:26;;;;;;;5.13;0.97;;;;;;;;;;5043380;28;20120;-71
2022/04/02 03:14:51;;;;;;;2.40;0.90;;;;;;;;;;5043188;28;20481;-72
2022/04/02 03:17:16;;;;;;;4.07;1.20;;;;;;;;;;5034571;28;20064;-72
2022/04/02 03:19:41;;;;;;;4.27;0.73;;;;;;;;;;5052310;28;20085;-72
2022/04/02 03:22:06;;;;;;;2.87;0.77;;;;;;;;;;5036095;28;20032;-72
2022/04/02 03:24:32;;;;;;;3.50;1.07;;;;;;;;;;5040048;28;20459;-71
2022/04/02 03:26:57;;;;;;;3.60;0.93;;;;;;;;;;5049484;28;20461;-71
2022/04/02 03:29:22;;;;;;;3.13;0.77;;;;;;;;;;5037433;28;20017;-71
2022/04/02 03:31:47;;;;;;;2.53;1.00;;;;;;;;;;5042869;28;20032;-71
2022/04/02 03:34:12;;;;;;;3.40;0.93;;;;;;;;;;5051779;28;20083;-71
2022/04/02 03:36:38;;;;;;;2.17;1.40;;;;;;;;;;5050338;28;20044;-71
2022/04/02 03:39:03;;;;;;;3.53;0.83;;;;;;;;;;5049675;28;20051;-71
2022/04/02 03:41:28;;;;;;;2.57;1.60;;;;;;;;;;5048127;28;20036;-71
2022/04/02 03:43:56;;;;;;;4.03;0.93;;;;;;;;;;5040551;28;20056;-72
2022/04/02 03:49:05;;;;;;;1.40;0.87;;;;;;;;;;5039880;28;20067;-71
2022/04/02 03:51:30;;;;;;;3.63;0.90;;;;;;;;;;5034649;28;20060;-71
2022/04/02 03:53:58;;;;;;;2.97;0.93;;;;;;;;;;5045616;28;20053;-71
2022/04/02 03:56:23;;;;;;;3.33;1.00;;;;;;;;;;5018050;28;20505;-71
2022/04/02 03:58:48;;;;;;;2.10;1.00;;;;;;;;;;5040760;28;20045;-72
2022/04/02 04:01:13;;;;;;;3.47;1.10;;;;;;;;;;5053124;28;21609;-71
2022/04/02 04:03:38;;;;;;;3.30;1.07;;;;;;;;;;5053096;28;20496;-71
2022/04/02 04:06:03;;;;;;;2.47;0.80;;;;;;;;;;5031558;28;20120;-71
2022/04/02 04:08:29;;;;;;;2.77;0.83;;;;;;;;;;5046310;28;20515;-71
2022/04/02 04:10:54;;;;;;;5.00;1.13;;;;;;;;;;5051604;28;20041;-71
2022/04/02 04:13:20;;;;;;;3.07;0.83;;;;;;;;;;5038074;28;20024;-71
2022/04/02 04:15:45;;;;;;;3.27;1.20;;;;;;;;;;5038052;28;20166;-71
2022/04/02 04:18:10;;;;;;;3.87;0.90;;;;;;;;;;5050733;28;20594;-71
2022/04/02 04:20:36;;;;;;;2.20;0.87;;;;;;;;;;5043716;28;20119;-71
2022/04/02 04:23:01;;;;;;;4.17;0.77;;;;;;;;;;5021887;28;20387;-71
2022/04/02 04:25:26;;;;;;;2.33;0.70;;;;;;;;;;5038942;28;20029;-70
2022/04/02 04:27:51;;;;;;;1.47;0.83;;;;;;;;;;5030521;28;20018;-71
2022/04/02 04:30:16;;;;;;;2.30;0.87;;;;;;;;;;5040221;28;20386;-71
2022/04/02 04:32:42;;;;;;;3.37;1.27;;;;;;;;;;5030052;28;20045;-71
2022/04/02 04:35:07;;;;;;;4.13;0.90;;;;;;;;;;5059816;28;20481;-71
2022/04/02 04:37:36;;;;;;;2.30;0.80;;;;;;;;;;5032869;28;20021;-71
2022/04/02 04:40:01;;;;;;;2.20;0.50;;;;;;;;;;5053032;28;20029;-70
2022/04/02 04:42:26;;;;;;;3.27;0.73;;;;;;;;;;5035710;28;20017;-71
2022/04/02 04:44:52;;;;;;;2.60;0.90;;;;;;;;;;5038162;28;20486;-70
2022/04/02 04:47:17;;;;;;;2.80;0.93;;;;;;;;;;5050018;28;20074;-71
2022/04/02 04:49:42;;;;;;;1.43;0.87;;;;;;;;;;5051492;28;20033;-71
2022/04/02 04:52:07;;;;;;;2.70;0.93;;;;;;;;;;5050444;28;20029;-72
2022/04/02 04:54:32;;;;;;;1.63;0.90;;;;;;;;;;5047173;28;20071;-71
2022/04/02 04:56:58;;;;;;;1.83;0.60;;;;;;;;;;5033944;28;20041;-72
2022/04/02 04:59:23;;;;;;;2.67;0.83;;;;;;;;;;5039544;28;20072;-72
2022/04/02 05:01:48;;;;;;;2.33;0.80;;;;;;;;;;5024402;28;20022;-71
2022/04/02 05:04:13;;;;;;;1.83;0.60;;;;;;;;;;5024373;28;20459;-71
2022/04/02 05:06:39;;;;;;;2.70;0.93;;;;;;;;;;5041209;28;20104;-70
2022/04/02 05:09:05;;;;;;;3.17;1.43;;;;;;;;;;5030094;28;20037;-70
2022/04/02 05:11:30;;;;;;;3.27;0.70;;;;;;;;;;5033615;28;20044;-71
2022/04/02 05:13:56;;;;;;;3.03;1.10;;;;;;;;;;5039788;28;20470;-70
2022/04/02 05:16:23;;;;;;;3.10;0.80;;;;;;;;;;5049052;28;20020;-71
2022/04/02 05:18:48;;;;;;;1.37;0.70;;;;;;;;;;5048832;28;20025;-71
2022/04/02 05:21:13;;;;;;;2.90;1.83;;;;;;;;;;5032638;28;20028;-71
2022/04/02 05:23:39;;;;;;;2.50;0.70;;;;;;;;;;5041782;28;20029;-71
2022/04/02 05:26:04;;;;;;;6.90;1.10;;;;;;;;;;5039635;28;20171;-72
2022/04/02 05:28:29;;;;;;;3.30;0.73;;;;;;;;;;5037887;28;20507;-72
2022/04/02 05:30:54;;;;;;;2.30;0.90;;;;;;;;;;5048095;28;20090;-71
2022/04/02 05:33:21;;;;;;;1.10;0.70;;;;;;;;;;5037597;28;20037;-71
2022/04/02 05:35:46;;;;;;;3.10;1.10;;;;;;;;;;5030111;28;20465;-71
2022/04/02 05:38:12;;;;;;;1.10;0.63;;;;;;;;;;5039959;28;20120;-72
2022/04/02 05:40:38;;;;;;;2.37;0.70;;;;;;;;;;5040702;28;20035;-72
2022/04/02 05:43:03;;;;;;;5.10;1.10;;;;;;;;;;5038041;28;20025;-73
2022/04/02 05:45:29;;;;;;;1.97;0.93;;;;;;;;;;5025140;28;20035;-72
2022/04/02 05:47:54;;;;;;;2.97;0.90;;;;;;;;;;5048597;28;20432;-72
2022/04/02 05:50:20;;;;;;;1.50;0.80;;;;;;;;;;5032046;28;20476;-72
2022/04/02 05:52:47;;;;;;;18.87;2.27;;;;;;;;;;5049695;28;20029;-65
2022/04/02 05:55:12;;;;;;;5.23;1.13;;;;;;;;;;5043985;28;20505;-64
2022/04/02 05:57:39;;;;;;;2.77;1.10;;;;;;;;;;5035524;28;20025;-61
2022/04/02 06:00:04;;;;;;;2.10;0.87;;;;;;;;;;5032506;28;20033;-63
2022/04/02 06:02:30;;;;;;;2.83;0.73;;;;;;;;;;5032604;28;20041;-63
2022/04/02 06:04:56;;;;;;;4.17;1.07;;;;;;;;;;5033592;28;20489;-63
2022/04/02 06:07:21;;;;;;;2.03;1.20;;;;;;;;;;5045112;28;20055;-65
2022/04/02 06:09:46;;;;;;;2.67;1.07;;;;;;;;;;5043952;28;20040;-64
2022/04/02 06:12:11;;;;;;;4.83;1.13;;;;;;;;;;5033640;28;20037;-63
2022/04/02 06:14:36;;;;;;;3.30;1.40;;;;;;;;;;5042297;28;20033;-64
2022/04/02 06:17:02;;;;;;;3.77;1.67;;;;;;;;;;5055118;28;20401;-64
2022/04/02 06:19:27;;;;;;;3.03;1.00;;;;;;;;;;5045401;28;20021;-64
2022/04/02 06:21:52;;;;;;;3.20;0.90;;;;;;;;;;5054019;28;20032;-64
2022/04/02 06:24:17;;;;;;;1.87;0.87;;;;;;;;;;5051670;28;20462;-66
2022/04/02 06:26:42;;;;;;;2.73;1.30;;;;;;;;;;5051741;28;20040;-65
2022/04/02 06:29:08;;;;;;;3.13;0.93;;;;;;;;;;5043595;28;20025;-66
2022/04/02 06:31:33;;;;;;;5.10;1.30;;;;;;;;;;5043312;28;20036;-65
2022/04/02 06:33:58;;;;;;;1.80;1.00;;;;;;;;;;5034960;28;20033;-65
2022/04/02 06:36:24;;;;;;;5.17;1.47;;;;;;;;;;5035946;28;20025;-65
2022/04/02 06:38:49;;;;;;;3.37;1.40;;;;;;;;;;5035324;28;20108;-64
2022/04/02 06:41:15;;;;;;;3.30;1.40;;;;;;;;;;5049448;28;20466;-65
2022/04/02 06:43:40;;;;;;;2.77;1.27;;;;;;;;;;5049169;28;20029;-65
2022/04/02 06:46:05;;;;;;;4.27;1.47;;;;;;;;;;5041173;28;20109;-65
2022/04/02 06:48:30;;;;;;;2.53;1.50;;;;;;;;;;5035045;28;20065;-66
2022/04/02 06:50:56;;;;;;;3.03;1.60;;;;;;;;;;5056114;28;20064;-65
2022/04/02 06:53:21;;;;;;;3.50;1.40;;;;;;;;;;5036330;28;20068;-65
2022/04/02 06:55:46;;;;;;;3.23;1.40;;;;;;;;;;5034034;28;20068;-64
2022/04/02 06:58:22;;;;;;;2.53;1.33;;;;;;;;;;5037149;28;20520;-64
2022/04/02 07:00:47;;;;;;;;;;;;;;;;;;5042420;28;20465;-64
2022/04/02 07:03:12;;;;;;;2.53;1.67;;;;;;;;;;5044644;28;19975;-64
2022/04/02 07:05:37;;;;;;;2.40;1.50;;;;;;;;;;5051912;28;20544;-64
2022/04/02 07:08:03;;;;;;;3.00;1.13;;;;;;;;;;5034784;28;20025;-63
2022/04/02 07:10:28;;;;;;;3.97;1.80;;;;;;;;;;5047066;28;20028;-63
2022/04/02 07:12:53;;;;;;;4.50;1.30;;;;;;;;;;5051543;28;20083;-63
2022/04/02 07:15:18;;;;;;;3.70;1.90;;;;;;;;;;5048962;28;20588;-64
2022/04/02 07:17:43;;;;;;;2.63;1.53;;;;;;;;;;5050044;28;20092;-64
2022/04/02 07:20:09;;;;;;;2.80;1.67;;;;;;;;;;5043217;28;20392;-64
2022/04/02 07:22:36;;;;;;;3.07;2.33;;;;;;;;;;5053956;28;20021;-64
2022/04/02 07:25:04;;;;;;;3.13;1.30;;;;;;;;;;5035168;28;20025;-64
2022/04/02 07:27:31;;;;;;;4.37;2.00;;;;;;;;;;5040957;28;20394;-65
2022/04/02 07:29:57;;;;;;;3.83;1.90;;;;;;;;;;5048419;28;20087;-64
2022/04/02 07:32:22;;;;;;;4.07;1.63;;;;;;;;;;5058104;28;20025;-63
2022/04/02 07:34:47;;;;;;;4.43;1.43;;;;;;;;;;5048817;28;20185;-63
2022/04/02 07:37:18;;;;;;;3.53;1.47;;;;;;;;;;5060444;28;20033;-63
2022/04/02 07:39:48;;;;;;;4.67;1.70;;;;;;;;;;5056151;28;20032;-64
2022/04/02 07:42:16;;;;;;;2.83;1.37;;;;;;;;;;5045574;28;20043;-64
2022/04/02 07:45:01;;;;;;;3.80;1.93;;;;;;;;;;5049484;28;20420;-64
2022/04/02 07:47:29;;;;;;;5.85;2.20;;;;;;;;;;5047865;28;20032;-63
2022/04/02 07:49:58;;;;;;;2.80;1.53;;;;;;;;;;5044124;28;20033;-64
2022/04/02 07:52:23;;;;;;;3.03;1.73;;;;;;;;;;5049441;28;20049;-65
2022/04/02 07:54:50;;;;;;;4.17;1.97;;;;;;;;;;5045845;28;20021;-65
2022/04/02 07:57:15;;;;;;;4.07;1.87;;;;;;;;;;5040052;28;20052;-63
2022/04/02 07:59:42;;;;;;;3.27;2.03;;;;;;;;;;5047529;28;20087;-64
2022/04/02 08:04:53;;;;;;;2.87;1.57;;;;;;;;;;5052617;28;20056;-65
2022/04/02 08:07:18;;;;;;;3.93;1.90;;;;;;;;;;5048574;28;20025;-64
2022/04/02 08:09:43;;;;;;;3.10;1.93;;;;;;;;;;5053814;28;20193;-64
2022/04/02 08:12:11;;;;;;;3.83;2.27;;;;;;;;;;5048900;28;20089;-64
2022/04/02 08:14:37;;;;;;;4.33;1.60;;;;;;;;;;5051069;28;20029;-64
2022/04/02 08:17:04;;;;;;;3.63;1.90;;;;;;;;;;5052631;28;20036;-64
2022/04/02 08:19:30;;;;;;;4.87;2.77;;;;;;;;;;5051355;28;20040;-64
2022/04/02 08:21:55;;;;;;;5.07;1.87;;;;;;;;;;5046513;28;20406;-63
2022/04/02 08:24:20;;;;;;;5.17;2.33;;;;;;;;;;5050118;28;20021;-64
2022/04/02 08:26:56;;;;;;;4.80;2.23;;;;;;;;;;5045647;28;20029;-64
2022/04/02 08:29:27;;;;;;;3.23;1.77;;;;;;;;;;5052278;28;20016;-64
2022/04/02 08:31:59;;;;;;;5.87;1.53;;;;;;;;;;5047908;28;20389;-64
2022/04/02 08:34:36;;;;;;;1.83;1.30;;;;;;;;;;5049406;28;20086;-64
2022/04/02 08:37:06;;;;;;;2.70;1.13;;;;;;;;;;5052717;28;20056;-64
2022/04/02 08:39:47;;;;;;;2.40;1.20;;;;;;;;;;5054653;28;20043;-63
2022/04/02 08:42:28;;;;;;;3.30;1.38;;;;;;;;;;5047921;28;20025;-66
2022/04/02 08:44:53;;;;;;;2.70;1.30;;;;;;;;;;5046693;28;20101;-66
2022/04/02 08:47:39;;;;;;;5.20;1.80;;;;;;;;;;5051398;28;20044;-67
2022/04/02 08:50:10;;;;;;;2.85;1.45;;;;;;;;;;5048856;28;20029;-64
2022/04/02 08:52:52;;;;;;;4.40;1.63;;;;;;;;;;5049493;28;20028;-65
2022/04/02 08:55:19;;;;;;;1.63;1.00;;;;;;;;;;5051990;28;20021;-67
2022/04/02 08:57:47;;;;;;;2.30;0.98;;;;;;;;;;5039303;28;20599;-67
2022/04/02 09:00:13;;;;;;;2.97;0.93;;;;;;;;;;5050654;28;20436;-66
2022/04/02 09:02:55;;;;;;;3.25;1.40;;;;;;;;;;5045747;28;20025;-66
2022/04/02 09:05:23;;;;;;;3.85;0.88;;;;;;;;;;5047778;28;20021;-67
2022/04/02 09:07:48;;;;;;;2.78;1.00;;;;;;;;;;5065807;28;20017;-67
2022/04/02 09:10:13;;;;;;;2.14;1.24;;;;;;;;;;5047543;28;20078;-66
2022/04/02 09:12:38;;;;;;;2.33;0.88;;;;;;;;;;5050873;28;20512;-66
2022/04/02 09:15:15;;;;;;;3.58;0.80;;;;;;;;;;5046269;28;20018;-67
2022/04/02 09:18:01;;;;;;;3.60;1.20;;;;;;;;;;5051447;28;20035;-66
2022/04/02 09:20:34;;;;;;;2.50;1.15;;;;;;;;;;5050279;28;20021;-66
2022/04/02 09:23:15;;;;;;;1.65;0.77;;;;;;;;;;5042248;28;20044;-66
2022/04/02 09:25:58;;;;;;;1.10;1.00;;;;;;;;;;5048996;28;20013;-66
2022/04/02 09:28:42;;;;;;;2.85;0.80;;;;;;;;;;5037694;28;20457;-66
2022/04/02 09:31:26;;;;;;;2.03;0.93;;;;;;;;;;5049581;28;20021;-67
2022/04/02 09:34:09;;;;;;;1.48;0.77;;;;;;;;;;5044497;28;20484;-68
2022/04/02 09:36:59;;;;;;;2.67;0.75;;;;;;;;;;5049628;28;20020;-65
2022/04/02 09:39:30;;;;;;;1.90;0.70;;;;;;;;;;5047155;28;20029;-68
2022/04/02 09:41:58;;;;;;;1.70;0.80;;;;;;;;;;5046783;28;20024;-67
2022/04/02 09:44:35;;;;;;;1.70;0.90;;;;;;;;;;5048480;28;20024;-68
2022/04/02 09:47:03;;;;;;;2.10;1.20;;;;;;;;;;5050931;28;20005;-68
2022/04/02 09:49:41;;;;;;;3.83;0.88;;;;;;;;;;5049808;28;20028;-68
2022/04/02 09:52:07;;;;;;;4.70;1.02;;;;;;;;;;5047813;28;20374;-67
2022/04/02 09:54:38;;;;;;;1.65;0.70;;;;;;;;;;5051087;28;20036;-68
2022/04/02 09:57:08;;;;;;;1.50;0.82;;;;;;;;;;5042254;28;20037;-67
2022/04/02 09:59:33;;;;;;;3.88;0.82;;;;;;;;;;5042201;28;20452;-65
2022/04/02 10:02:04;;;;;;;3.50;0.98;;;;;;;;;;5046366;28;20149;-68
2022/04/02 10:04:32;;;;;;;3.92;0.90;;;;;;;;;;5046523;28;20017;-67
2022/04/02 10:07:01;;;;;;;2.03;0.80;;;;;;;;;;5050352;28;20075;-68
2022/04/02 10:09:34;;;;;;;1.83;0.80;;;;;;;;;;5047502;28;20033;-68
2022/04/02 10:12:01;;;;;;;2.55;1.25;;;;;;;;;;5044220;28;20031;-68
2022/04/02 10:14:30;;;;;;;2.38;1.00;;;;;;;;;;5041153;28;20017;-68
2022/04/02 10:17:03;;;;;;;2.30;0.88;;;;;;;;;;5050225;28;20079;-68
2022/04/02 10:19:29;;;;;;;1.40;0.47;;;;;;;;;;5050233;28;20543;-68
2022/04/02 10:22:09;;;;;;;2.72;1.27;;;;;;;;;;5043868;28;20067;-67
2022/04/02 10:24:38;;;;;;;2.58;1.08;;;;;;;;;;5046889;28;20394;-67
2022/04/02 10:27:04;;;;;;;1.80;0.73;;;;;;;;;;5039504;28;20413;-67
2022/04/02 10:29:48;;;;;;;1.17;0.50;;;;;;;;;;5040451;28;20036;-68
2022/04/02 10:32:29;;;;;;;5.78;0.70;;;;;;;;;;5041012;28;20120;-67
2022/04/02 10:34:55;;;;;;;2.08;0.90;;;;;;;;;;5040157;28;20236;-68
2022/04/02 10:37:21;;;;;;;3.22;0.75;;;;;;;;;;5044019;28;20474;-68
2022/04/02 10:39:55;;;;;;;3.92;0.77;;;;;;;;;;5051102;28;20033;-68
2022/04/02 10:42:24;;;;;;;1.63;0.93;;;;;;;;;;5048735;28;20017;-68
2022/04/02 10:44:50;;;;;;;1.67;0.60;;;;;;;;;;5038625;28;20083;-68
2022/04/02 10:47:18;;;;;;;3.78;0.80;;;;;;;;;;5030957;28;20462;-67
2022/04/02 10:49:45;;;;;;;0.60;0.45;;;;;;;;;;5041397;28;20135;-67
2022/04/02 10:52:11;;;;;;;2.88;1.10;;;;;;;;;;5040071;28;20393;-69
2022/04/02 10:54:38;;;;;;;2.28;0.73;;;;;;;;;;5041446;28;20086;-68
2022/04/02 10:57:05;;;;;;;4.60;0.80;;;;;;;;;;5041315;28;20116;-68
2022/04/02 10:59:31;;;;;;;0.90;0.50;;;;;;;;;;5040472;28;20054;-69
2022/04/02 11:01:59;;;;;;;1.95;0.40;;;;;;;;;;5045714;28;20040;-67
2022/04/02 11:04:27;;;;;;;1.60;0.75;;;;;;;;;;5046290;28;20071;-66
2022/04/02 11:06:52;;;;;;;3.08;0.82;;;;;;;;;;5045146;28;20127;-68
2022/04/02 11:09:36;;;;;;;1.70;0.57;;;;;;;;;;5047114;28;20031;-67
2022/04/02 11:12:08;;;;;;;1.67;0.70;;;;;;;;;;5043664;28;20048;-68
2022/04/02 11:14:38;;;;;;;2.67;0.77;;;;;;;;;;5042701;28;20029;-66
2022/04/02 11:17:03;;;;;;;3.33;0.70;;;;;;;;;;5043035;28;20025;-68
2022/04/02 11:22:22;;;;;;;1.40;0.47;;;;;;;;;;5042583;28;20032;-68
2022/04/02 11:25:07;;;;;;;1.05;0.52;;;;;;;;;;5052907;28;20394;-68
2022/04/02 11:27:37;;;;;;;0.90;0.60;;;;;;;;;;5037557;28;20079;-68
2022/04/02 11:30:07;;;;;;;2.85;1.08;;;;;;;;;;5048617;28;22027;-67
2022/04/02 11:32:50;;;;;;;1.85;0.73;;;;;;;;;;5048535;28;20060;-68
2022/04/02 11:35:22;;;;;;;2.10;0.80;;;;;;;;;;5048312;28;20028;-68
2022/04/02 11:38:08;;;;;;;1.58;0.70;;;;;;;;;;5050495;28;20033;-68
2022/04/02 11:40:36;;;;;;;3.17;0.60;;;;;;;;;;5045436;28;20037;-68
2022/04/02 11:43:02;;;;;;;2.50;0.90;;;;;;;;;;5043095;28;20253;-68
2022/04/02 11:45:28;;;;;;;1.85;0.68;;;;;;;;;;5042393;28;20033;-68
2022/04/02 11:47:57;;;;;;;1.83;0.68;;;;;;;;;;5042699;28;20115;-68
2022/04/02 11:50:24;;;;;;;2.67;0.60;;;;;;;;;;5042616;28;20524;-68
2022/04/02 11:52:51;;;;;;;1.42;0.70;;;;;;;;;;5043632;28;20029;-68
2022/04/02 11:55:17;;;;;;;2.10;0.70;;;;;;;;;;5043369;28;20048;-68
2022/04/02 11:57:57;;;;;;;1.55;0.40;;;;;;;;;;5043805;28;20406;-68
2022/04/02 12:00:26;;;;;;;1.00;0.45;;;;;;;;;;5055617;28;20110;-68
2022/04/02 12:02:52;;;;;;;1.45;0.60;;;;;;;;;;5040655;28;20366;-68
2022/04/02 12:05:17;;;;;;;2.45;0.80;;;;;;;;;;5046987;28;20013;-69
2022/04/02 12:07:42;;;;;;;1.20;0.60;;;;;;;;;;5048115;28;20386;-69
2022/04/02 12:10:11;;;;;;;2.40;0.63;;;;;;;;;;5044045;28;20060;-69
2022/04/02 12:12:41;;;;;;;4.00;0.70;;;;;;;;;;5038658;28;20115;-68
2022/04/02 12:15:10;;;;;;;4.43;0.73;;;;;;;;;;5043802;28;20485;-68
2022/04/02 12:17:36;;;;;;;2.00;0.57;;;;;;;;;;5050225;28;20510;-67
2022/04/02 12:20:02;;;;;;;1.15;0.50;;;;;;;;;;5046972;28;20028;-68
2022/04/02 12:22:30;;;;;;;0.88;0.50;;;;;;;;;;5050235;28;20025;-68
2022/04/02 12:25:02;;;;;;;1.63;0.32;;;;;;;;;;5050193;28;20382;-68
2022/04/02 12:27:29;;;;;;;0.80;0.43;;;;;;;;;;5036724;28;20116;-70
2022/04/02 12:29:55;;;;;;;2.35;0.50;;;;;;;;;;5037939;28;20231;-68
2022/04/02 12:32:27;;;;;;;0.98;0.57;;;;;;;;;;5049580;28;20036;-67
2022/04/02 12:34:57;;;;;;;4.35;0.70;;;;;;;;;;5035963;28;20017;-69
2022/04/02 12:37:23;;;;;;;1.40;0.50;;;;;;;;;;5034833;28;20083;-67
2022/04/02 12:39:50;;;;;;;3.03;0.52;;;;;;;;;;5029847;28;20114;-66
2022/04/02 12:42:34;;;;;;;1.10;0.60;;;;;;;;;;5036966;28;20071;-67
2022/04/02 12:45:13;;;;;;;1.10;0.50;;;;;;;;;;5034789;28;20018;-68
2022/04/02 12:47:39;;;;;;;1.83;0.50;;;;;;;;;;5039269;28;20082;-67
2022/04/02 12:50:14;;;;;;;1.48;0.52;;;;;;;;;;5051507;28;20401;-68
2022/04/02 12:52:49;;;;;;;1.35;0.52;;;;;;;;;;5050015;28;20032;-67
2022/04/02 12:55:16;;;;;;;2.42;0.60;;;;;;;;;;5047714;28;20044;-67
2022/04/02 12:57:45;;;;;;;2.33;0.60;;;;;;;;;;5044258;28;20033;-68
2022/04/02 13:00:23;;;;;;;1.40;0.60;;;;;;;;;;5044907;28;20088;-69
2022/04/02 13:02:54;;;;;;;0.95;0.30;;;;;;;;;;5041725;28;20028;-68
2022/04/02 13:05:20;;;;;;;0.95;0.52;;;;;;;;;;5043424;28;20036;-67
2022/04/02 13:08:11;;;;;;;1.13;0.50;;;;;;;;;;5037068;28;20133;-67
2022/04/02 13:10:43;;;;;;;1.20;0.40;;;;;;;;;;5049450;28;20036;-67
2022/04/02 13:13:11;;;;;;;1.23;0.40;;;;;;;;;;5044927;28;20021;-68
2022/04/02 13:15:36;;;;;;;2.33;0.65;;;;;;;;;;5034554;28;20410;-67
2022/04/02 13:20:47;;;;;;;2.03;0.50;;;;;;;;;;5035591;28;20626;-67
2022/04/02 13:23:32;;;;;;;2.22;0.50;;;;;;;;;;5032023;28;20028;-68
2022/04/02 13:26:03;;;;;;;1.15;0.40;;;;;;;;;;5031506;28;20115;-67
2022/04/02 13:28:46;;;;;;;0.60;0.50;;;;;;;;;;5031002;28;20025;-68
2022/04/02 13:31:13;;;;;;;2.25;0.80;;;;;;;;;;5043954;28;20098;-68
2022/04/02 13:33:45;;;;;;;0.43;0.38;;;;;;;;;;5036432;28;20075;-68
2022/04/02 13:36:16;;;;;;;1.92;0.60;;;;;;;;;;5040043;28;20013;-68
2022/04/02 13:38:51;;;;;;;1.00;0.52;;;;;;;;;;5032300;28;20466;-67
2022/04/02 13:41:19;;;;;;;;;;;;;;;;;;5032455;28;20024;-67
2022/04/02 13:43:51;;;;;;;1.48;0.50;;;;;;;;;;5051323;28;19909;-68
2022/04/02 13:46:20;;;;;;;0.93;0.40;;;;;;;;;;5046584;28;20025;-69
2022/04/02 13:48:54;;;;;;;1.42;0.63;;;;;;;;;;5043182;28;20026;-68
2022/04/02 13:51:22;;;;;;;2.88;0.68;;;;;;;;;;5033291;28;20017;-68
2022/04/02 13:53:51;;;;;;;1.15;0.50;;;;;;;;;;5035815;28;20112;-67
2022/04/02 13:56:20;;;;;;;1.33;0.65;;;;;;;;;;5035701;28;20079;-68
2022/04/02 13:58:46;;;;;;;0.93;0.60;;;;;;;;;;5035475;28;20041;-68
2022/04/02 14:01:13;;;;;;;1.05;0.50;;;;;;;;;;5041972;28;20020;-67
2022/04/02 14:03:39;;;;;;;2.63;0.52;;;;;;;;;;5044661;28;20021;-68
2022/04/02 14:06:06;;;;;;;2.38;0.77;;;;;;;;;;5044461;28;20029;-68
2022/04/02 14:08:35;;;;;;;1.15;0.70;;;;;;;;;;5046717;28;20541;-68
2022/04/02 14:11:04;;;;;;;1.50;0.90;;;;;;;;;;5048745;28;20029;-68
2022/04/02 14:13:34;;;;;;;2.35;0.85;;;;;;;;;;5048071;28;20021;-68
2022/04/02 14:16:01;;;;;;;2.42;0.90;;;;;;;;;;5046852;28;20025;-68
2022/04/02 14:18:29;;;;;;;2.60;0.60;;;;;;;;;;5050074;28;20580;-68
2022/04/02 14:20:56;;;;;;;2.53;0.60;;;;;;;;;;5049813;28;20066;-67
2022/04/02 14:23:25;;;;;;;5.63;0.73;;;;;;;;;;5046804;28;20021;-69
2022/04/02 14:26:09;;;;;;;1.75;0.80;;;;;;;;;;5047002;28;20021;-68
2022/04/02 14:28:42;;;;;;;2.70;0.80;;;;;;;;;;5045840;28;20094;-67
2022/04/02 14:31:07;;;;;;;2.53;0.82;;;;;;;;;;5037324;28;20038;-69
2022/04/02 14:33:44;;;;;;;2.45;1.08;;;;;;;;;;5030873;28;20108;-68
2022/04/02 14:36:28;;;;;;;3.30;1.50;;;;;;;;;;5048198;28;20116;-68
2022/04/02 14:39:12;;;;;;;1.88;0.75;;;;;;;;;;5036536;28;20026;-68
2022/04/02 14:41:40;;;;;;;1.17;0.65;;;;;;;;;;5036348;28;20022;-68
2022/04/02 14:44:17;;;;;;;2.35;1.00;;;;;;;;;;5052270;28;20005;-68
2022/04/02 14:46:48;;;;;;;0.82;0.57;;;;;;;;;;5054012;28;20444;-68
2022/04/02 14:49:16;;;;;;;5.82;0.60;;;;;;;;;;5043343;28;20041;-69
2022/04/02 14:52:02;;;;;;;2.85;1.80;;;;;;;;;;5052585;28;20104;-70
2022/04/02 14:54:45;;;;;;;2.55;1.10;;;;;;;;;;5035794;28;20021;-68
2022/04/02 14:57:16;;;;;;;4.53;1.50;;;;;;;;;;5040551;28;20040;-69
2022/04/02 15:00:00;;;;;;;2.67;0.95;;;;;;;;;;5036112;28;20438;-68
2022/04/02 15:02:59;;;;;;;2.13;1.70;;;;;;;;;;5047646;28;20021;-67
2022/04/02 15:05:33;;;;;;;5.05;2.70;;;;;;;;;;5045607;28;20035;-67